sensor_id;sensor_type;location;lat;lon;timestamp;pressure;altitude;pressure_sealevel;temperature;humidity
64080;BME280;51042;49.696;10.808;2024-02-26T00:01:12;97178.16;;;0.13;100.00
64080;BME280;51042;49.696;10.808;2024-02-26T00:03:37;97177.78;;;0.15;100.00
64080;BME280;51042;49.696;10.808;2024-02-26T00:06:04;97186.66;;;0.12;100.00
64080;BME280;51042;49.696;10.808;2024-02-26T00:08:29;97181.31;;;0.05;100.00
64080;BME280;51042;49.696;10.808;2024-02-26T00:10:54;97168.63;;;-0.02;100.00
64080;BME280;51042;49.696;10.808;2024-02-26T00:13:20;97179.44;;;-0.06;100.00
64080;BME280;51042;49.696;10.808;2024-02-26T00:15:47;97172.53;;;-0.10;100.00
64080;BME280;51042;49.696;10.808;2024-02-26T00:18:12;97159.09;;;-0.14;100.00
64080;BME280;51042;49.696;10.808;2024-02-26T00:20:37;97169.09;;;-0.14;100.00
64080;BME280;51042;49.696;10.808;2024-02-26T00:23:04;97172.19;;;-0.12;100.00
64080;BME280;51042;49.696;10.808;2024-02-26T00:25:29;97168.72;;;-0.13;100.00
64080;BME280;51042;49.696;10.808;2024-02-26T00:27:54;97176.81;;;-0.13;100.00
64080;BME280;51042;49.696;10.808;2024-02-26T00:30:20;97172.19;;;-0.12;100.00
64080;BME280;51042;49.696;10.808;2024-02-26T00:32:45;97173.34;;;-0.17;100.00
64080;BME280;51042;49.696;10.808;2024-02-26T00:35:10;97172.22;;;-0.19;100.00
64080;BME280;51042;49.696;10.808;2024-02-26T00:37:36;97155.31;;;-0.27;100.00
64080;BME280;51042;49.696;10.808;2024-02-26T00:40:01;97156.47;;;-0.28;100.00
64080;BME280;51042;49.696;10.808;2024-02-26T00:42:26;97149.19;;;-0.31;100.00
64080;BME280;51042;49.696;10.808;2024-02-26T00:44:52;97159.19;;;-0.31;100.00
64080;BME280;51042;49.696;10.808;2024-02-26T00:47:17;97158.81;;;-0.33;100.00
64080;BME280;51042;49.696;10.808;2024-02-26T00:49:42;97161.13;;;-0.32;100.00
64080;BME280;51042;49.696;10.808;2024-02-26T00:52:07;97164.19;;;-0.33;100.00
64080;BME280;51042;49.696;10.808;2024-02-26T00:54:33;97168.06;;;-0.38;100.00
64080;BME280;51042;49.696;10.808;2024-02-26T00:56:58;97171.19;;;-0.43;100.00
64080;BME280;51042;49.696;10.808;2024-02-26T00:59:23;97169.25;;;-0.46;100.00
64080;BME280;51042;49.696;10.808;2024-02-26T01:01:49;97169.25;;;-0.46;100.00
64080;BME280;51042;49.696;10.808;2024-02-26T01:04:14;97175.81;;;-0.44;100.00
64080;BME280;51042;49.696;10.808;2024-02-26T01:06:39;97170.78;;;-0.42;100.00
64080;BME280;51042;49.696;10.808;2024-02-26T01:09:05;97186.94;;;-0.38;100.00
64080;BME280;51042;49.696;10.808;2024-02-26T01:11:31;97176.94;;;-0.41;100.00
64080;BME280;51042;49.696;10.808;2024-02-26T01:13:56;97176.94;;;-0.41;100.00
64080;BME280;51042;49.696;10.808;2024-02-26T01:16:22;97177.72;;;-0.44;100.00
64080;BME280;51042;49.696;10.808;2024-02-26T01:18:48;97182.34;;;-0.45;100.00
64080;BME280;51042;49.696;10.808;2024-02-26T01:21:13;97186.56;;;-0.47;100.00
64080;BME280;51042;49.696;10.808;2024-02-26T01:23:39;97185.06;;;-0.48;100.00
64080;BME280;51042;49.696;10.808;2024-02-26T01:26:05;97195.44;;;-0.47;100.00
64080;BME280;51042;49.696;10.808;2024-02-26T01:28:30;97197.31;;;-0.40;100.00
64080;BME280;51042;49.696;10.808;2024-02-26T01:30:55;97201.16;;;-0.30;100.00
64080;BME280;51042;49.696;10.808;2024-02-26T01:33:20;97201.09;;;-0.23;100.00
64080;BME280;51042;49.696;10.808;2024-02-26T01:35:46;97204.16;;;-0.18;100.00
64080;BME280;51042;49.696;10.808;2024-02-26T01:38:11;97206.03;;;-0.11;100.00
64080;BME280;51042;49.696;10.808;2024-02-26T01:40:37;97207.94;;;-0.05;100.00
64080;BME280;51042;49.696;10.808;2024-02-26T01:43:02;97205.59;;;0.05;100.00
64080;BME280;51042;49.696;10.808;2024-02-26T01:45:28;97188.59;;;0.08;100.00
64080;BME280;51042;49.696;10.808;2024-02-26T01:47:53;97206.66;;;0.14;100.00
64080;BME280;51042;49.696;10.808;2024-02-26T01:50:20;97197.38;;;0.19;100.00
64080;BME280;51042;49.696;10.808;2024-02-26T01:52:47;97199.31;;;0.22;100.00
64080;BME280;51042;49.696;10.808;2024-02-26T01:55:14;97196.63;;;0.18;100.00
64080;BME280;51042;49.696;10.808;2024-02-26T01:57:40;97191.63;;;0.17;100.00
64080;BME280;51042;49.696;10.808;2024-02-26T02:00:09;97188.16;;;0.16;100.00
64080;BME280;51042;49.696;10.808;2024-02-26T02:02:35;97185.47;;;0.16;100.00
64080;BME280;51042;49.696;10.808;2024-02-26T02:05:01;97183.97;;;0.12;100.00
64080;BME280;51042;49.696;10.808;2024-02-26T02:07:28;97183.59;;;0.10;100.00
64080;BME280;51042;49.696;10.808;2024-02-26T02:09:53;97195.16;;;0.07;100.00
64080;BME280;51042;49.696;10.808;2024-02-26T02:12:19;97191.69;;;0.10;100.00
64080;BME280;51042;49.696;10.808;2024-02-26T02:14:44;97185.84;;;0.15;100.00
64080;BME280;51042;49.696;10.808;2024-02-26T02:17:10;97184.66;;;0.19;100.00
64080;BME280;51042;49.696;10.808;2024-02-26T02:19:35;97180.81;;;0.24;100.00
64080;BME280;51042;49.696;10.808;2024-02-26T02:22:01;97179.19;;;0.30;100.00
64080;BME280;51042;49.696;10.808;2024-02-26T02:24:26;97181.06;;;0.40;100.00
64080;BME280;51042;49.696;10.808;2024-02-26T02:26:51;97190.22;;;0.50;100.00
64080;BME280;51042;49.696;10.808;2024-02-26T02:29:17;97184.44;;;0.51;100.00
64080;BME280;51042;49.696;10.808;2024-02-26T02:31:42;97175.56;;;0.51;100.00
64080;BME280;51042;49.696;10.808;2024-02-26T02:34:08;97180.97;;;0.51;100.00
64080;BME280;51042;49.696;10.808;2024-02-26T02:36:34;97171.34;;;0.50;100.00
64080;BME280;51042;49.696;10.808;2024-02-26T02:39:00;97171.75;;;0.45;100.00
64080;BME280;51042;49.696;10.808;2024-02-26T02:41:25;97170.22;;;0.44;100.00
64080;BME280;51042;49.696;10.808;2024-02-26T02:43:52;97172.53;;;0.45;100.00
64080;BME280;51042;49.696;10.808;2024-02-26T02:46:17;97172.91;;;0.47;100.00
64080;BME280;51042;49.696;10.808;2024-02-26T02:48:43;97172.50;;;0.49;100.00
64080;BME280;51042;49.696;10.808;2024-02-26T02:51:08;97166.41;;;0.41;100.00
64080;BME280;51042;49.696;10.808;2024-02-26T02:53:34;97156.00;;;0.36;100.00
64080;BME280;51042;49.696;10.808;2024-02-26T02:55:59;97148.34;;;0.34;100.00
64080;BME280;51042;49.696;10.808;2024-02-26T02:58:24;97157.22;;;0.35;100.00
64080;BME280;51042;49.696;10.808;2024-02-26T03:00:50;97155.66;;;0.34;100.00
64080;BME280;51042;49.696;10.808;2024-02-26T03:03:15;97155.66;;;0.34;100.00
64080;BME280;51042;49.696;10.808;2024-02-26T03:05:40;97152.97;;;0.30;100.00
64080;BME280;51042;49.696;10.808;2024-02-26T03:08:06;97162.25;;;0.29;100.00
64080;BME280;51042;49.696;10.808;2024-02-26T03:10:31;97172.28;;;0.29;100.00
64080;BME280;51042;49.696;10.808;2024-02-26T03:12:57;97171.84;;;0.34;100.00
64080;BME280;51042;49.696;10.808;2024-02-26T03:15:22;97172.59;;;0.38;100.00
64080;BME280;51042;49.696;10.808;2024-02-26T03:17:47;97179.84;;;0.45;100.00
64080;BME280;51042;49.696;10.808;2024-02-26T03:20:13;97172.47;;;0.52;100.00
64080;BME280;51042;49.696;10.808;2024-02-26T03:22:39;97182.03;;;0.60;100.00
64080;BME280;51042;49.696;10.808;2024-02-26T03:25:05;97184.28;;;0.69;100.00
64080;BME280;51042;49.696;10.808;2024-02-26T03:27:31;97176.13;;;0.76;100.00
64080;BME280;51042;49.696;10.808;2024-02-26T03:29:56;97184.91;;;0.83;100.00
64080;BME280;51042;49.696;10.808;2024-02-26T03:32:22;97178.66;;;0.94;100.00
64080;BME280;51042;49.696;10.808;2024-02-26T03:34:47;97164.00;;;0.95;100.00
64080;BME280;51042;49.696;10.808;2024-02-26T03:37:12;97160.47;;;0.98;100.00
64080;BME280;51042;49.696;10.808;2024-02-26T03:39:38;97158.50;;;1.02;100.00
64080;BME280;51042;49.696;10.808;2024-02-26T03:42:04;97158.06;;;1.07;100.00
64080;BME280;51042;49.696;10.808;2024-02-26T03:44:29;97154.94;;;1.12;100.00
64080;BME280;51042;49.696;10.808;2024-02-26T03:46:54;97159.56;;;1.11;100.00
64080;BME280;51042;49.696;10.808;2024-02-26T03:49:20;97162.25;;;1.11;100.00
64080;BME280;51042;49.696;10.808;2024-02-26T03:51:46;97171.53;;;1.10;100.00
64080;BME280;51042;49.696;10.808;2024-02-26T03:54:12;97163.06;;;1.08;100.00
64080;BME280;51042;49.696;10.808;2024-02-26T03:56:37;97158.91;;;1.00;100.00
64080;BME280;51042;49.696;10.808;2024-02-26T03:59:02;97164.00;;;0.95;100.00
64080;BME280;51042;49.696;10.808;2024-02-26T04:01:28;97158.25;;;0.89;100.00
64080;BME280;51042;49.696;10.808;2024-02-26T04:03:53;97152.16;;;0.81;100.00
64080;BME280;51042;49.696;10.808;2024-02-26T04:06:18;97145.25;;;0.77;100.00
64080;BME280;51042;49.696;10.808;2024-02-26T04:08:46;97148.03;;;0.66;100.00
64080;BME280;51042;49.696;10.808;2024-02-26T04:11:14;97151.56;;;0.63;100.00
64080;BME280;51042;49.696;10.808;2024-02-26T04:13:42;97149.69;;;0.57;100.00
64080;BME280;51042;49.696;10.808;2024-02-26T04:16:14;97144.63;;;0.62;100.00
64080;BME280;51042;49.696;10.808;2024-02-26T04:18:39;97152.31;;;0.64;100.00
64080;BME280;51042;49.696;10.808;2024-02-26T04:21:05;97158.06;;;0.66;100.00
64080;BME280;51042;49.696;10.808;2024-02-26T04:23:32;97164.25;;;0.66;100.00
64080;BME280;51042;49.696;10.808;2024-02-26T04:25:58;97160.00;;;0.69;100.00
64080;BME280;51042;49.696;10.808;2024-02-26T04:28:23;97161.16;;;0.68;100.00
64080;BME280;51042;49.696;10.808;2024-02-26T04:30:51;97156.91;;;0.67;100.00
64080;BME280;51042;49.696;10.808;2024-02-26T04:33:16;97166.94;;;0.70;100.00
64080;BME280;51042;49.696;10.808;2024-02-26T04:35:42;97178.44;;;0.74;100.00
64080;BME280;51042;49.696;10.808;2024-02-26T04:38:07;97186.94;;;0.76;100.00
64080;BME280;51042;49.696;10.808;2024-02-26T04:40:32;97189.19;;;0.81;100.00
64080;BME280;51042;49.696;10.808;2024-02-26T04:42:58;97193.38;;;0.86;100.00
64080;BME280;51042;49.696;10.808;2024-02-26T04:45:23;97185.22;;;0.93;100.00
64080;BME280;51042;49.696;10.808;2024-02-26T04:47:49;97192.88;;;1.01;100.00
64080;BME280;51042;49.696;10.808;2024-02-26T04:50:14;97191.94;;;1.15;100.00
64080;BME280;51042;49.696;10.808;2024-02-26T04:52:39;97200.34;;;1.24;100.00
64080;BME280;51042;49.696;10.808;2024-02-26T04:55:06;97200.59;;;1.33;100.00
64080;BME280;51042;49.696;10.808;2024-02-26T04:57:31;97203.31;;;1.33;100.00
64080;BME280;51042;49.696;10.808;2024-02-26T04:59:57;97192.13;;;1.31;100.00
64080;BME280;51042;49.696;10.808;2024-02-26T05:02:22;97183.69;;;1.29;100.00
64080;BME280;51042;49.696;10.808;2024-02-26T05:04:47;97193.34;;;1.27;100.00
64080;BME280;51042;49.696;10.808;2024-02-26T05:07:13;97179.88;;;1.23;100.00
64080;BME280;51042;49.696;10.808;2024-02-26T05:09:38;97182.97;;;1.21;100.00
64080;BME280;51042;49.696;10.808;2024-02-26T05:12:05;97182.59;;;1.19;100.00
64080;BME280;51042;49.696;10.808;2024-02-26T05:14:30;97189.22;;;1.15;100.00
64080;BME280;51042;49.696;10.808;2024-02-26T05:16:56;97191.16;;;1.14;100.00
64080;BME280;51042;49.696;10.808;2024-02-26T05:19:21;97196.94;;;1.16;100.00
64080;BME280;51042;49.696;10.808;2024-02-26T05:21:46;97192.69;;;1.19;100.00
64080;BME280;51042;49.696;10.808;2024-02-26T05:24:14;97186.84;;;1.20;100.00
64080;BME280;51042;49.696;10.808;2024-02-26T05:26:40;97196.09;;;1.23;100.00
64080;BME280;51042;49.696;10.808;2024-02-26T05:29:06;97194.88;;;1.28;100.00
64080;BME280;51042;49.696;10.808;2024-02-26T05:31:31;97197.13;;;1.33;100.00
64080;BME280;51042;49.696;10.808;2024-02-26T05:33:56;97195.94;;;1.37;100.00
64080;BME280;51042;49.696;10.808;2024-02-26T05:36:22;97203.25;;;1.40;100.00
64080;BME280;51042;49.696;10.808;2024-02-26T05:38:47;97192.81;;;1.39;100.00
64080;BME280;51042;49.696;10.808;2024-02-26T05:41:17;97201.31;;;1.41;100.00
64080;BME280;51042;49.696;10.808;2024-02-26T05:43:51;97194.31;;;1.43;100.00
64080;BME280;51042;49.696;10.808;2024-02-26T05:46:17;97203.94;;;1.48;100.00
64080;BME280;51042;49.696;10.808;2024-02-26T05:48:43;97201.56;;;1.50;100.00
64080;BME280;51042;49.696;10.808;2024-02-26T05:51:09;97205.41;;;1.52;100.00
64080;BME280;51042;49.696;10.808;2024-02-26T05:53:34;97201.56;;;1.53;100.00
64080;BME280;51042;49.696;10.808;2024-02-26T05:55:59;97198.03;;;1.56;100.00
64080;BME280;51042;49.696;10.808;2024-02-26T05:58:25;97202.22;;;1.61;100.00
64080;BME280;51042;49.696;10.808;2024-02-26T06:00:50;97203.28;;;1.71;100.00
64080;BME280;51042;49.696;10.808;2024-02-26T06:03:15;97214.78;;;1.75;100.00
64080;BME280;51042;49.696;10.808;2024-02-26T06:05:41;97212.50;;;1.73;100.00
64080;BME280;51042;49.696;10.808;2024-02-26T06:08:07;97208.69;;;1.71;100.00
64080;BME280;51042;49.696;10.808;2024-02-26T06:10:32;97203.97;;;1.75;100.00
64080;BME280;51042;49.696;10.808;2024-02-26T06:12:58;97208.22;;;1.76;100.00
64080;BME280;51042;49.696;10.808;2024-02-26T06:15:23;97215.97;;;1.74;100.00
64080;BME280;51042;49.696;10.808;2024-02-26T06:17:48;97228.72;;;1.73;100.00
64080;BME280;51042;49.696;10.808;2024-02-26T06:20:13;97227.91;;;1.76;100.00
64080;BME280;51042;49.696;10.808;2024-02-26T06:22:42;97225.53;;;1.82;100.00
64080;BME280;51042;49.696;10.808;2024-02-26T06:25:07;97229.72;;;1.86;100.00
64080;BME280;51042;49.696;10.808;2024-02-26T06:27:34;97220.84;;;1.86;100.00
64080;BME280;51042;49.696;10.808;2024-02-26T06:30:00;97211.06;;;1.95;100.00
64080;BME280;51042;49.696;10.808;2024-02-26T06:32:25;97215.56;;;2.05;100.00
64080;BME280;51042;49.696;10.808;2024-02-26T06:34:52;97223.19;;;2.14;100.00
64080;BME280;51042;49.696;10.808;2024-02-26T06:37:18;97224.66;;;2.19;100.00
64080;BME280;51042;49.696;10.808;2024-02-26T06:39:43;97219.91;;;2.26;100.00
64080;BME280;51042;49.696;10.808;2024-02-26T06:42:09;97222.16;;;2.31;100.00
64080;BME280;51042;49.696;10.808;2024-02-26T06:44:34;97228.22;;;2.39;100.00
64080;BME280;51042;49.696;10.808;2024-02-26T06:46:59;97232.44;;;2.43;100.00
64080;BME280;51042;49.696;10.808;2024-02-26T06:49:25;97231.22;;;2.44;100.00
64080;BME280;51042;49.696;10.808;2024-02-26T06:51:51;97226.56;;;2.45;100.00
64080;BME280;51042;49.696;10.808;2024-02-26T06:54:16;97224.25;;;2.47;100.00
64080;BME280;51042;49.696;10.808;2024-02-26T06:56:42;97223.47;;;2.46;100.00
64080;BME280;51042;49.696;10.808;2024-02-26T06:59:07;97225.81;;;2.44;100.00
64080;BME280;51042;49.696;10.808;2024-02-26T07:01:32;97215.34;;;2.46;100.00
64080;BME280;51042;49.696;10.808;2024-02-26T07:03:58;97218.06;;;2.46;100.00
64080;BME280;51042;49.696;10.808;2024-02-26T07:06:23;97211.00;;;2.53;100.00
64080;BME280;51042;49.696;10.808;2024-02-26T07:08:48;97215.59;;;2.56;100.00
64080;BME280;51042;49.696;10.808;2024-02-26T07:11:14;97206.72;;;2.55;100.00
64080;BME280;51042;49.696;10.808;2024-02-26T07:13:39;97202.84;;;2.56;100.00
64080;BME280;51042;49.696;10.808;2024-02-26T07:16:05;97207.00;;;2.61;100.00
64080;BME280;51042;49.696;10.808;2024-02-26T07:18:30;97209.63;;;2.68;100.00
64080;BME280;51042;49.696;10.808;2024-02-26T07:20:56;97215.72;;;2.72;100.00
64080;BME280;51042;49.696;10.808;2024-02-26T07:23:21;97216.84;;;2.74;100.00
64080;BME280;51042;49.696;10.808;2024-02-26T07:25:46;97212.84;;;2.82;100.00
64080;BME280;51042;49.696;10.808;2024-02-26T07:28:13;97226.97;;;2.94;100.00
64080;BME280;51042;49.696;10.808;2024-02-26T07:30:39;97228.31;;;3.05;100.00
64080;BME280;51042;49.696;10.808;2024-02-26T07:33:04;97231.19;;;3.18;100.00
64080;BME280;51042;49.696;10.808;2024-02-26T07:35:30;97227.84;;;3.34;100.00
64080;BME280;51042;49.696;10.808;2024-02-26T07:37:55;97227.50;;;3.51;100.00
64080;BME280;51042;49.696;10.808;2024-02-26T07:40:20;97231.03;;;3.68;100.00
64080;BME280;51042;49.696;10.808;2024-02-26T07:42:46;97217.94;;;3.83;100.00
64080;BME280;51042;49.696;10.808;2024-02-26T07:45:11;97200.91;;;3.82;100.00
64080;BME280;51042;49.696;10.808;2024-02-26T07:47:36;97198.44;;;3.88;100.00
64080;BME280;51042;49.696;10.808;2024-02-26T07:50:05;97186.91;;;3.84;100.00
64080;BME280;51042;49.696;10.808;2024-02-26T07:52:32;97194.22;;;3.87;100.00
64080;BME280;51042;49.696;10.808;2024-02-26T07:54:57;97186.69;;;3.94;100.00
64080;BME280;51042;49.696;10.808;2024-02-26T07:57:23;97171.94;;;3.95;100.00
64080;BME280;51042;49.696;10.808;2024-02-26T07:59:48;97184.50;;;4.05;100.00
64080;BME280;51042;49.696;10.808;2024-02-26T08:02:14;97187.72;;;4.00;100.00
64080;BME280;51042;49.696;10.808;2024-02-26T08:04:40;97196.22;;;4.02;100.00
64080;BME280;51042;49.696;10.808;2024-02-26T08:07:06;97196.47;;;4.08;100.00
64080;BME280;51042;49.696;10.808;2024-02-26T08:09:31;97199.72;;;4.19;100.00
64080;BME280;51042;49.696;10.808;2024-02-26T08:11:56;97196.59;;;4.37;100.00
64080;BME280;51042;49.696;10.808;2024-02-26T08:14:22;97190.09;;;4.34;100.00
64080;BME280;51042;49.696;10.808;2024-02-26T08:16:47;97187.44;;;4.31;100.00
64080;BME280;51042;49.696;10.808;2024-02-26T08:19:12;97192.44;;;4.32;100.00
64080;BME280;51042;49.696;10.808;2024-02-26T08:21:40;97197.22;;;4.44;100.00
64080;BME280;51042;49.696;10.808;2024-02-26T08:24:05;97212.31;;;4.62;100.00
64080;BME280;51042;49.696;10.808;2024-02-26T08:26:31;97206.38;;;4.83;100.00
64080;BME280;51042;49.696;10.808;2024-02-26T08:28:56;97195.81;;;5.01;100.00
64080;BME280;51042;49.696;10.808;2024-02-26T08:31:22;97187.59;;;5.05;100.00
64080;BME280;51042;49.696;10.808;2024-02-26T08:33:48;97164.72;;;5.02;100.00
64080;BME280;51042;49.696;10.808;2024-02-26T08:36:14;97159.44;;;5.11;100.00
64080;BME280;51042;49.696;10.808;2024-02-26T08:38:39;97162.34;;;5.33;100.00
64080;BME280;51042;49.696;10.808;2024-02-26T08:41:04;97153.53;;;5.29;100.00
64080;BME280;51042;49.696;10.808;2024-02-26T08:43:30;97148.97;;;5.39;100.00
64080;BME280;51042;49.696;10.808;2024-02-26T08:45:56;97150.78;;;5.58;100.00
64080;BME280;51042;49.696;10.808;2024-02-26T08:48:22;97143.94;;;5.53;100.00
64080;BME280;51042;49.696;10.808;2024-02-26T08:50:47;97141.13;;;5.69;100.00
64080;BME280;51042;49.696;10.808;2024-02-26T08:53:12;97130.88;;;5.73;100.00
64080;BME280;51042;49.696;10.808;2024-02-26T08:55:38;97129.25;;;5.76;100.00
64080;BME280;51042;49.696;10.808;2024-02-26T08:58:03;97128.13;;;5.90;100.00
64080;BME280;51042;49.696;10.808;2024-02-26T09:00:28;97123.53;;;5.99;100.00
64080;BME280;51042;49.696;10.808;2024-02-26T09:02:54;97124.19;;;6.16;100.00
64080;BME280;51042;49.696;10.808;2024-02-26T09:05:19;97117.75;;;5.97;100.00
64080;BME280;51042;49.696;10.808;2024-02-26T09:07:44;97115.31;;;5.74;100.00
64080;BME280;51042;49.696;10.808;2024-02-26T09:10:11;97124.38;;;5.71;100.00
64080;BME280;51042;49.696;10.808;2024-02-26T09:12:37;97117.97;;;5.90;100.00
64080;BME280;51042;49.696;10.808;2024-02-26T09:15:03;97127.03;;;6.00;100.00
64080;BME280;51042;49.696;10.808;2024-02-26T09:17:28;97125.59;;;6.08;100.00
64080;BME280;51042;49.696;10.808;2024-02-26T09:19:54;97117.53;;;6.30;100.00
64080;BME280;51042;49.696;10.808;2024-02-26T09:22:19;97117.22;;;6.15;100.00
64080;BME280;51042;49.696;10.808;2024-02-26T09:24:45;97122.84;;;6.46;100.00
64080;BME280;51042;49.696;10.808;2024-02-26T09:27:10;97119.78;;;6.44;100.00
64080;BME280;51042;49.696;10.808;2024-02-26T09:29:35;97109.81;;;6.75;100.00
64080;BME280;51042;49.696;10.808;2024-02-26T09:32:01;97096.09;;;7.22;100.00
64080;BME280;51042;49.696;10.808;2024-02-26T09:34:27;97087.47;;;7.24;100.00
64080;BME280;51042;49.696;10.808;2024-02-26T09:36:53;97081.50;;;7.38;100.00
64080;BME280;51042;49.696;10.808;2024-02-26T09:39:18;97074.50;;;7.37;100.00
64080;BME280;51042;49.696;10.808;2024-02-26T09:41:46;97060.00;;;6.96;100.00
64080;BME280;51042;49.696;10.808;2024-02-26T09:44:11;97056.84;;;6.64;100.00
64080;BME280;51042;49.696;10.808;2024-02-26T09:46:43;97072.34;;;6.67;100.00
64080;BME280;51042;49.696;10.808;2024-02-26T09:49:09;97061.16;;;6.74;100.00
64080;BME280;51042;49.696;10.808;2024-02-26T09:51:37;97063.94;;;6.95;100.00
64080;BME280;51042;49.696;10.808;2024-02-26T09:54:03;97057.19;;;6.87;100.00
64080;BME280;51042;49.696;10.808;2024-02-26T09:56:29;97050.97;;;6.87;100.00
64080;BME280;51042;49.696;10.808;2024-02-26T09:58:55;97039.78;;;6.85;100.00
64080;BME280;51042;49.696;10.808;2024-02-26T10:01:23;97038.25;;;6.84;100.00
64080;BME280;51042;49.696;10.808;2024-02-26T10:03:54;97043.66;;;6.96;100.00
64080;BME280;51042;49.696;10.808;2024-02-26T10:06:21;97035.06;;;6.85;100.00
64080;BME280;51042;49.696;10.808;2024-02-26T10:08:47;97029.88;;;7.00;100.00
64080;BME280;51042;49.696;10.808;2024-02-26T10:11:13;97017.03;;;7.10;100.00
64080;BME280;51042;49.696;10.808;2024-02-26T10:13:39;97012.84;;;7.18;100.00
64080;BME280;51042;49.696;10.808;2024-02-26T10:16:06;97014.78;;;7.39;100.00
64080;BME280;51042;49.696;10.808;2024-02-26T10:18:45;97022.97;;;7.70;100.00
64080;BME280;51042;49.696;10.808;2024-02-26T10:21:11;97021.84;;;7.98;100.00
64080;BME280;51042;49.696;10.808;2024-02-26T10:23:37;97027.81;;;8.15;100.00
64080;BME280;51042;49.696;10.808;2024-02-26T10:26:02;97028.47;;;8.28;100.00
64080;BME280;51042;49.696;10.808;2024-02-26T10:28:29;97034.44;;;8.45;100.00
64080;BME280;51042;49.696;10.808;2024-02-26T10:30:54;97034.13;;;8.43;100.00
64080;BME280;51042;49.696;10.808;2024-02-26T10:33:20;97043.22;;;8.40;100.00
64080;BME280;51042;49.696;10.808;2024-02-26T10:35:46;97052.22;;;8.86;100.00
64080;BME280;51042;49.696;10.808;2024-02-26T10:38:12;97045.78;;;9.34;100.00
64080;BME280;51042;49.696;10.808;2024-02-26T10:40:37;97043.63;;;9.38;100.00
64080;BME280;51042;49.696;10.808;2024-02-26T10:43:02;97038.19;;;9.29;100.00
64080;BME280;51042;49.696;10.808;2024-02-26T10:45:28;97027.59;;;9.04;100.00
64080;BME280;51042;49.696;10.808;2024-02-26T10:47:53;97030.78;;;8.93;100.00
64080;BME280;51042;49.696;10.808;2024-02-26T10:50:19;97034.91;;;8.80;100.00
64080;BME280;51042;49.696;10.808;2024-02-26T10:52:44;97041.56;;;8.97;100.00
64080;BME280;51042;49.696;10.808;2024-02-26T10:55:15;97052.97;;;8.95;100.00
64080;BME280;51042;49.696;10.808;2024-02-26T10:57:43;97056.31;;;9.09;100.00
64080;BME280;51042;49.696;10.808;2024-02-26T11:00:10;97058.09;;;9.39;100.00
64080;BME280;51042;49.696;10.808;2024-02-26T11:02:39;97057.88;;;9.61;100.00
64080;BME280;51042;49.696;10.808;2024-02-26T11:05:05;97057.88;;;9.61;100.00
64080;BME280;51042;49.696;10.808;2024-02-26T11:07:32;97056.56;;;9.47;100.00
64080;BME280;51042;49.696;10.808;2024-02-26T11:10:00;97050.28;;;9.65;100.00
64080;BME280;51042;49.696;10.808;2024-02-26T11:12:27;97054.41;;;9.42;100.00
64080;BME280;51042;49.696;10.808;2024-02-26T11:14:54;97054.09;;;10.00;100.00
64080;BME280;51042;49.696;10.808;2024-02-26T11:17:21;97040.63;;;10.44;100.00
64080;BME280;51042;49.696;10.808;2024-02-26T11:19:49;97035.88;;;10.45;100.00
64080;BME280;51042;49.696;10.808;2024-02-26T11:22:16;97032.22;;;10.24;100.00
64080;BME280;51042;49.696;10.808;2024-02-26T11:24:42;97023.94;;;10.33;100.00
64080;BME280;51042;49.696;10.808;2024-02-26T11:27:09;97026.94;;;10.11;100.00
64080;BME280;51042;49.696;10.808;2024-02-26T11:29:41;97023.75;;;10.04;100.00
64080;BME280;51042;49.696;10.808;2024-02-26T11:32:09;97030.16;;;10.34;100.00
64080;BME280;51042;49.696;10.808;2024-02-26T11:34:36;97018.66;;;11.07;100.00
64080;BME280;51042;49.696;10.808;2024-02-26T11:37:11;97023.59;;;11.32;100.00
64080;BME280;51042;49.696;10.808;2024-02-26T11:39:42;97023.13;;;10.80;100.00
64080;BME280;51042;49.696;10.808;2024-02-26T11:42:10;97032.31;;;9.97;100.00
64080;BME280;51042;49.696;10.808;2024-02-26T11:44:39;97027.75;;;9.61;100.00
64080;BME280;51042;49.696;10.808;2024-02-26T11:49:42;97026.56;;;9.95;100.00
64080;BME280;51042;49.696;10.808;2024-02-26T11:52:08;97036.00;;;10.27;100.00
64080;BME280;51042;49.696;10.808;2024-02-26T11:54:50;97034.47;;;10.26;100.00
64080;BME280;51042;49.696;10.808;2024-02-26T11:57:23;97026.63;;;10.42;100.00
64080;BME280;51042;49.696;10.808;2024-02-26T11:59:49;97046.97;;;10.50;100.00
64080;BME280;51042;49.696;10.808;2024-02-26T12:05:22;97040.97;;;10.99;100.00
64080;BME280;51042;49.696;10.808;2024-02-26T12:07:54;97039.44;;;10.98;100.00
64080;BME280;51042;49.696;10.808;2024-02-26T12:10:24;97030.66;;;10.94;100.00
64080;BME280;51042;49.696;10.808;2024-02-26T12:13:33;97036.81;;;11.04;100.00
64080;BME280;51042;49.696;10.808;2024-02-26T12:15:43;97028.31;;;11.31;100.00
64080;BME280;51042;49.696;10.808;2024-02-26T12:18:10;97026.22;;;11.26;100.00
64080;BME280;51042;49.696;10.808;2024-02-26T12:20:41;97027.25;;;10.99;100.00
64080;BME280;51042;49.696;10.808;2024-02-26T12:23:08;97025.19;;;11.24;100.00
64080;BME280;51042;49.696;10.808;2024-02-26T12:25:40;97035.91;;;11.36;100.00
64080;BME280;51042;49.696;10.808;2024-02-26T12:28:05;97031.25;;;11.13;100.00
64080;BME280;51042;49.696;10.808;2024-02-26T12:30:32;97044.88;;;11.22;100.00
64080;BME280;51042;49.696;10.808;2024-02-26T12:32:57;97041.19;;;11.40;100.00
64080;BME280;51042;49.696;10.808;2024-02-26T12:35:25;97036.94;;;11.54;100.00
64080;BME280;51042;49.696;10.808;2024-02-26T12:37:52;97035.31;;;11.62;100.00
64080;BME280;51042;49.696;10.808;2024-02-26T12:40:20;97034.38;;;11.65;100.00
64080;BME280;51042;49.696;10.808;2024-02-26T12:42:46;97037.66;;;11.69;100.00
64080;BME280;51042;49.696;10.808;2024-02-26T12:45:12;97029.53;;;11.60;100.00
64080;BME280;51042;49.696;10.808;2024-02-26T12:47:39;97029.25;;;11.58;100.00